createdAt,value
2019-02-06T00:03:23.834Z,2.30
2019-02-06T00:08:28.029Z,2.30
2019-02-06T00:13:32.343Z,2.20
2019-02-06T00:18:36.603Z,2.30
2019-02-06T00:23:40.722Z,2.30
2019-02-06T00:28:44.544Z,2.20
2019-02-06T00:33:48.778Z,2.20
2019-02-06T00:38:52.798Z,2.30
2019-02-06T00:43:56.525Z,2.20
2019-02-06T00:49:00.247Z,2.10
2019-02-06T00:54:05.136Z,2.10
2019-02-06T00:59:08.961Z,2.10
2019-02-06T01:04:12.657Z,2.00
2019-02-06T01:09:16.778Z,2.00
2019-02-06T01:14:20.495Z,1.90
2019-02-06T01:19:24.687Z,2.00
2019-02-06T01:24:28.523Z,1.90
2019-02-06T01:29:32.547Z,1.90
2019-02-06T01:34:36.930Z,1.80
2019-02-06T01:39:41.379Z,1.80
2019-02-06T01:44:45.561Z,1.70
2019-02-06T01:49:49.308Z,1.70
2019-02-06T01:54:53.083Z,1.70
2019-02-06T01:59:58.811Z,1.60
2019-02-06T02:05:02.511Z,1.60
2019-02-06T02:10:07.386Z,1.80
2019-02-06T02:15:12.325Z,1.80
2019-02-06T02:20:20.541Z,1.80
2019-02-06T02:25:24.268Z,1.80
2019-02-06T02:30:41.556Z,1.90
2019-02-06T02:35:45.296Z,1.90
2019-02-06T02:40:49.609Z,1.90
2019-02-06T02:45:53.476Z,1.90
2019-02-06T02:50:57.261Z,1.80
2019-02-06T02:56:00.972Z,1.80
2019-02-06T03:01:25.826Z,1.90
2019-02-06T03:06:30.030Z,1.90
2019-02-06T03:11:34.876Z,1.90
2019-02-06T03:16:38.700Z,1.90
2019-02-06T03:21:42.817Z,1.90
2019-02-06T03:26:46.607Z,1.80
2019-02-06T03:31:50.467Z,1.90
2019-02-06T03:36:54.326Z,1.80
2019-02-06T03:41:58.093Z,1.80
2019-02-06T03:47:02.041Z,1.90
2019-02-06T03:52:05.825Z,1.90
2019-02-06T03:57:09.820Z,1.80
2019-02-06T04:02:13.484Z,1.80
2019-02-06T04:07:17.597Z,1.70
2019-02-06T04:12:21.280Z,1.60
2019-02-06T04:17:25.519Z,1.70
2019-02-06T04:22:29.266Z,1.70
2019-02-06T04:27:32.974Z,1.70
2019-02-06T04:32:36.686Z,1.50
2019-02-06T04:37:40.378Z,1.50
2019-02-06T04:42:44.144Z,1.40
2019-02-06T04:47:48.271Z,1.30
2019-02-06T04:52:52.036Z,1.00
2019-02-06T04:57:55.777Z,0.90
2019-02-06T05:02:59.855Z,1.00
2019-02-06T05:08:03.717Z,1.20
2019-02-06T05:13:07.733Z,1.30
2019-02-06T05:18:11.562Z,1.40
2019-02-06T05:23:15.552Z,1.50
2019-02-06T05:28:19.246Z,1.50
2019-02-06T05:33:23.308Z,1.50
2019-02-06T05:38:27.552Z,1.50
2019-02-06T05:43:31.537Z,1.50
2019-02-06T05:48:35.487Z,1.60
2019-02-06T05:53:39.181Z,1.60
2019-02-06T05:58:43.248Z,1.70
2019-02-06T06:03:47.591Z,1.70
2019-02-06T06:08:51.256Z,1.70
2019-02-06T06:13:55.270Z,1.80
2019-02-06T06:18:59.018Z,1.80
2019-02-06T06:24:02.722Z,1.80
2019-02-06T06:29:06.497Z,1.80
2019-02-06T06:34:10.230Z,1.80
2019-02-06T06:39:13.909Z,1.80
2019-02-06T06:44:17.657Z,1.90
2019-02-06T06:49:21.471Z,1.80
2019-02-06T06:54:25.201Z,1.80
2019-02-06T06:59:28.879Z,1.70
2019-02-06T07:04:33.149Z,1.80
2019-02-06T07:09:36.831Z,1.80
2019-02-06T07:14:41.261Z,1.80
2019-02-06T07:19:45.031Z,1.90
2019-02-06T07:24:49.051Z,1.90
2019-02-06T07:29:52.725Z,1.90
2019-02-06T07:34:56.725Z,2.00
2019-02-06T07:40:00.540Z,2.00
2019-02-06T07:45:04.911Z,2.10
2019-02-06T07:50:12.505Z,2.40
2019-02-06T07:55:16.512Z,2.40
2019-02-06T08:00:20.595Z,3.00
2019-02-06T08:05:24.763Z,4.80
2019-02-06T08:10:31.355Z,5.70
2019-02-06T08:15:35.162Z,7.10
2019-02-06T08:20:39.081Z,7.50
2019-02-06T08:25:42.759Z,8.60
2019-02-06T08:30:46.777Z,8.80
2019-02-06T08:35:50.829Z,9.80
2019-02-06T08:40:54.506Z,10.40
2019-02-06T08:45:58.253Z,10.00
2019-02-06T08:51:02.065Z,10.70
2019-02-06T08:56:06.032Z,10.20
2019-02-06T09:01:10.140Z,10.70
2019-02-06T09:06:13.841Z,11.50
2019-02-06T09:11:17.564Z,12.50
2019-02-06T09:16:22.601Z,13.20
2019-02-06T09:21:27.032Z,13.30
2019-02-06T09:26:35.417Z,13.30
2019-02-06T09:31:36.905Z,11.90
2019-02-06T09:36:40.841Z,13.20
2019-02-06T09:41:44.617Z,15.10
2019-02-06T09:46:48.326Z,14.00
2019-02-06T09:51:52.312Z,14.70
2019-02-06T09:56:56.061Z,13.20
2019-02-06T10:01:59.740Z,13.40
2019-02-06T10:07:03.479Z,14.50
2019-02-06T10:12:07.179Z,15.70
2019-02-06T10:17:11.373Z,15.40
2019-02-06T10:22:15.055Z,15.90
2019-02-06T10:27:18.781Z,15.90
2019-02-06T10:32:22.536Z,15.10
2019-02-06T10:37:29.053Z,16.00
2019-02-06T10:42:31.741Z,15.00
2019-02-06T10:47:35.551Z,16.50
2019-02-06T10:52:39.653Z,18.00
2019-02-06T10:57:43.367Z,17.30
2019-02-06T11:02:47.198Z,16.10
2019-02-06T11:07:51.301Z,16.60
2019-02-06T11:12:55.117Z,17.50
2019-02-06T11:17:58.819Z,17.00
2019-02-06T11:23:02.512Z,15.30
2019-02-06T11:28:07.591Z,16.00
2019-02-06T11:33:11.400Z,16.30
2019-02-06T11:38:15.106Z,15.60
2019-02-06T11:43:18.890Z,15.10
2019-02-06T11:48:22.700Z,14.80
2019-02-06T11:53:27.236Z,15.50
2019-02-06T11:58:30.913Z,15.40
2019-02-06T12:03:34.681Z,13.60
2019-02-06T12:08:38.665Z,14.50
2019-02-06T12:13:42.855Z,15.60
2019-02-06T12:18:46.557Z,13.90
2019-02-06T12:23:50.257Z,12.90
2019-02-06T12:28:54.222Z,12.80
2019-02-06T12:33:57.986Z,12.80
2019-02-06T12:39:02.082Z,12.80
2019-02-06T12:44:05.920Z,13.00
2019-02-06T12:49:09.946Z,12.40
2019-02-06T12:54:13.667Z,12.20
2019-02-06T12:59:17.433Z,11.60
2019-02-06T13:04:21.200Z,12.10
2019-02-06T13:09:24.901Z,11.80
2019-02-06T13:14:28.653Z,11.90
2019-02-06T13:19:32.398Z,10.50
2019-02-06T13:24:36.287Z,10.40
2019-02-06T13:29:40.532Z,11.30
2019-02-06T13:34:44.231Z,9.80
2019-02-06T13:39:47.999Z,9.90
2019-02-06T13:44:51.738Z,9.10
2019-02-06T13:49:55.431Z,9.00
2019-02-06T13:54:59.540Z,8.90
2019-02-06T14:00:04.794Z,8.60
2019-02-06T14:05:08.989Z,8.60
2019-02-06T14:10:14.967Z,8.30
2019-02-06T14:15:21.277Z,6.80
2019-02-06T14:20:25.077Z,5.80
2019-02-06T14:25:35.333Z,6.30
2019-02-06T14:31:07.229Z,6.60
2019-02-06T14:37:04.508Z,7.20
2019-02-06T14:42:30.121Z,6.60
2019-02-06T14:47:53.359Z,6.70
2019-02-06T14:53:11.393Z,6.50
2019-02-06T14:59:05.269Z,5.90
2019-02-06T15:04:55.687Z,5.90
2019-02-06T15:10:46.030Z,4.90
2019-02-06T15:16:09.566Z,4.60
2019-02-06T15:21:53.747Z,4.50
2019-02-06T15:27:14.864Z,4.40
2019-02-06T15:33:13.973Z,4.40
2019-02-06T15:38:40.256Z,3.90
2019-02-06T15:44:13.902Z,3.50
2019-02-06T15:50:07.078Z,3.20
2019-02-06T15:55:36.337Z,2.90
2019-02-06T16:01:30.440Z,2.80
2019-02-06T16:06:56.599Z,2.60
2019-02-06T16:12:47.481Z,2.50
2019-02-06T16:18:08.461Z,2.40
2019-02-06T16:23:55.928Z,2.40
2019-02-06T16:29:30.917Z,2.10
2019-02-06T16:34:54.605Z,2.00
2019-02-06T16:40:36.327Z,2.10
2019-02-06T16:46:25.506Z,2.10
2019-02-06T16:52:06.193Z,1.90
2019-02-06T16:57:59.019Z,1.90
2019-02-06T17:03:27.603Z,1.80
2019-02-06T17:09:07.379Z,1.80
2019-02-06T17:14:42.986Z,1.80
2019-02-06T17:20:23.005Z,1.70
2019-02-06T17:25:37.502Z,1.70
2019-02-06T17:31:03.923Z,1.70
2019-02-06T17:36:51.249Z,1.60
2019-02-06T17:42:48.771Z,1.60
2019-02-06T17:48:27.948Z,1.60
2019-02-06T17:54:00.019Z,1.60
2019-02-06T17:59:04.939Z,1.60
2019-02-06T18:04:17.598Z,1.50
2019-02-06T18:09:21.752Z,1.50
2019-02-06T18:14:25.514Z,1.50
2019-02-06T18:25:21.643Z,1.40
2019-02-06T18:30:27.017Z,1.40
2019-02-06T18:35:31.144Z,1.40
2019-02-06T18:40:35.366Z,1.40
2019-02-06T18:45:39.135Z,1.40
2019-02-06T18:51:08.454Z,1.40
2019-02-06T18:56:15.750Z,1.40
2019-02-06T19:01:19.799Z,1.30
2019-02-06T19:06:24.822Z,1.30
2019-02-06T19:11:28.727Z,1.30
2019-02-06T19:16:32.672Z,1.30
2019-02-06T19:21:36.517Z,1.30
2019-02-06T19:26:40.227Z,1.30
2019-02-06T19:31:44.101Z,1.30
2019-02-06T19:36:48.252Z,1.30
2019-02-06T19:41:51.996Z,1.30
2019-02-06T19:46:55.819Z,1.30
2019-02-06T19:51:59.847Z,1.30
2019-02-06T19:57:03.768Z,1.20
2019-02-06T20:02:07.811Z,1.20
2019-02-06T20:07:11.495Z,1.20
2019-02-06T20:12:15.347Z,1.20
2019-02-06T20:17:19.764Z,1.20
2019-02-06T20:22:23.676Z,1.20
2019-02-06T20:27:27.779Z,1.20
2019-02-06T20:32:31.568Z,1.20
2019-02-06T20:37:35.282Z,1.10
2019-02-06T20:42:39.118Z,1.20
2019-02-06T20:47:42.957Z,1.10
2019-02-06T20:52:46.705Z,1.10
2019-02-06T20:57:50.770Z,1.20
2019-02-06T21:02:54.448Z,1.10
2019-02-06T21:07:58.137Z,1.20
2019-02-06T21:13:01.813Z,1.10
2019-02-06T21:18:06.149Z,1.20
2019-02-06T21:23:10.193Z,1.20
2019-02-06T21:28:14.669Z,1.20
2019-02-06T21:33:18.473Z,1.10
2019-02-06T21:38:22.249Z,1.10
2019-02-06T21:43:25.962Z,1.00
2019-02-06T21:48:29.707Z,1.00
2019-02-06T21:53:34.793Z,0.90
2019-02-06T21:58:38.776Z,0.80
2019-02-06T22:03:42.920Z,0.90
2019-02-06T22:08:46.692Z,0.90
2019-02-06T22:13:55.213Z,0.90
2019-02-06T22:18:56.322Z,0.80
2019-02-06T22:24:00.077Z,0.80
2019-02-06T22:29:03.926Z,0.70
2019-02-06T22:34:08.049Z,0.70
2019-02-06T22:39:12.243Z,0.70
2019-02-06T22:44:15.937Z,0.70
2019-02-06T22:49:19.790Z,0.70
2019-02-06T22:54:23.903Z,0.60
2019-02-06T22:59:28.009Z,0.60
2019-02-06T23:04:31.786Z,0.60
2019-02-06T23:09:36.209Z,0.60
2019-02-06T23:14:40.075Z,0.60
2019-02-06T23:19:43.916Z,0.50
2019-02-06T23:24:47.915Z,0.50
2019-02-06T23:29:51.962Z,0.50
2019-02-06T23:34:55.660Z,0.50
2019-02-06T23:39:59.585Z,0.50
2019-02-06T23:45:03.439Z,0.50
2019-02-06T23:50:07.367Z,0.40
2019-02-06T23:55:11.262Z,0.30
